»·PEaware :: N231DG KSNA-KSMO

N231DG :: KSNA-KSMO

FLIGHT INFORMATION

Flight Status: Arrived
Operator: Privately registered:
United States
More flights under this callsign
Pilot: Chip D. (15091)
Aircraft: CESSNA 172 SKYHAWK
(C172)
More flights by this aircraft type
Origin: KSNA John Wayne-Orange Co
United States
Destination: KSMO Santa Monica Mun
United States
More flights between these airports :: More routes between these airports
Route: SLI V8 POXKU V363 BAYJY V186 DARTS
File this flight plan on PilotEdge
Remarks: TEC ROUTE CSTP9
Altitude:
(Current/Filed)
6,000ft
Speed:
(Current/Filed)
120kts
Departed: 14-Apr-19 02:42 PM
Arrived: 14-Apr-19 03:22 PM
Distance/Time
Traveled:
36nm/0:40
Distance/Time
To Go:
Arrived

Flight Plot

Page will automatically refresh every two minutes.


Map Options




Map Legend


Flown Route
Filed Route
Departure Airport
Arrival Airport
Navaid (VOR, NDB)
Fix

Horizontal Profiles

Position Reports

Time Latitude Longitude Heading Altitude Ground
Speed
14-Apr-19 14:14 33.676080 -117.870909 219 60ft 0kts
14-Apr-19 14:15 33.676080 -117.870909 219 60ft 0kts
14-Apr-19 14:16 33.676080 -117.870909 219 60ft 0kts
14-Apr-19 14:17 33.676080 -117.870909 219 60ft 0kts
14-Apr-19 14:18 33.676080 -117.870909 219 60ft 0kts
14-Apr-19 14:19 33.676080 -117.870909 219 60ft 0kts
14-Apr-19 14:20 33.676080 -117.870909 219 60ft 0kts
14-Apr-19 14:21 33.676080 -117.870909 219 60ft 0kts
14-Apr-19 14:22 33.676080 -117.870909 219 60ft 0kts
14-Apr-19 14:23 33.676080 -117.870909 219 60ft 0kts
14-Apr-19 14:24 33.676080 -117.870909 219 60ft 0kts
14-Apr-19 14:25 33.676080 -117.870909 219 60ft 0kts
14-Apr-19 14:26 33.676080 -117.870909 219 60ft 0kts
14-Apr-19 14:27 33.676080 -117.870909 219 60ft 0kts
14-Apr-19 14:28 33.676080 -117.870909 219 60ft 0kts
14-Apr-19 14:29 33.676080 -117.870909 219 60ft 0kts
14-Apr-19 14:30 33.676080 -117.870909 219 60ft 0kts
14-Apr-19 14:31 33.676080 -117.870909 219 60ft 0kts
14-Apr-19 14:32 33.676080 -117.870909 219 60ft 0kts
14-Apr-19 14:33 33.676080 -117.870909 219 60ft 0kts
14-Apr-19 14:34 33.676043 -117.870938 205 60ft 2kts
14-Apr-19 14:35 33.676589 -117.869772 27 60ft 9kts
14-Apr-19 14:36 33.679397 -117.868079 16 60ft 13kts
14-Apr-19 14:37 33.681167 -117.867043 46 60ft 0kts
14-Apr-19 14:38 33.681272 -117.866536 117 60ft 6kts
14-Apr-19 14:39 33.681247 -117.866480 115 60ft 0kts
14-Apr-19 14:40 33.681247 -117.866480 115 60ft 0kts
14-Apr-19 14:41 33.677152 -117.867925 208 72ft 75kts
14-Apr-19 14:42 33.661563 -117.887107 245 901ft 101kts
14-Apr-19 14:43 33.649959 -117.920204 245 1510ft 110kts
14-Apr-19 14:44 33.651013 -117.953185 328 2038ft 123kts
14-Apr-19 14:45 33.680098 -117.972629 324 2636ft 118kts
14-Apr-19 14:46 33.707399 -117.994256 323 3240ft 116kts
14-Apr-19 14:47 33.733744 -118.014881 321 3938ft 111kts
14-Apr-19 14:48 33.758530 -118.035723 320 4637ft 108kts
14-Apr-19 14:49 33.784660 -118.044915 44 5326ft 112kts
14-Apr-19 14:50 33.796009 -118.011183 73 5985ft 111kts
14-Apr-19 14:51 33.806670 -117.970263 72 6005ft 136kts
14-Apr-19 14:52 33.818210 -117.926223 71 6003ft 138kts
14-Apr-19 14:53 33.830453 -117.882290 70 6001ft 138kts
14-Apr-19 14:54 33.842293 -117.838400 71 6000ft 137kts
14-Apr-19 14:55 33.854481 -117.794924 49 6001ft 136kts
14-Apr-19 14:57 33.889234 -117.787704 357 6007ft 129kts
14-Apr-19 14:58 33.924598 -117.787951 356 6003ft 123kts
14-Apr-19 14:59 33.958331 -117.788621 355 6008ft 121kts
14-Apr-19 15:00 33.992371 -117.789415 354 6012ft 122kts
14-Apr-19 15:01 34.011964 -117.816948 291 6015ft 115kts
14-Apr-19 15:02 34.023962 -117.852738 289 6017ft 115kts
14-Apr-19 15:03 34.036592 -117.888454 290 6020ft 115kts
14-Apr-19 15:04 34.048271 -117.924516 287 6022ft 116kts
14-Apr-19 15:05 34.059506 -117.961083 286 6024ft 116kts
14-Apr-19 15:06 34.071329 -117.999723 287 5650ft 129kts
14-Apr-19 15:07 34.083549 -118.039478 286 5048ft 124kts
14-Apr-19 15:08 34.093885 -118.078407 285 4439ft 121kts
14-Apr-19 15:09 34.104826 -118.113997 286 4290ft 103kts
14-Apr-19 15:10 34.114802 -118.145848 284 4288ft 102kts
14-Apr-19 15:11 34.126119 -118.181906 286 4292ft 120kts
14-Apr-19 15:12 34.138111 -118.219988 285 4292ft 122kts
14-Apr-19 15:13 34.150176 -118.258605 284 4285ft 123kts
14-Apr-19 15:14 34.139698 -118.294680 241 4287ft 112kts
14-Apr-19 15:15 34.118998 -118.326064 223 3468ft 116kts
14-Apr-19 15:16 34.098611 -118.350761 224 2763ft 92kts
14-Apr-19 15:17 34.081134 -118.371904 223 2196ft 86kts
14-Apr-19 15:18 34.063931 -118.392714 224 1632ft 79kts
14-Apr-19 15:19 34.049799 -118.409810 223 1203ft 66kts
14-Apr-19 15:20 34.037194 -118.425047 224 793ft 59kts
14-Apr-19 15:20 34.027646 -118.436655 226 476ft 59kts
14-Apr-19 15:22 34.015759 -118.451373 221 139ft 27kts
14-Apr-19 15:23 34.015767 -118.453000 312 138ft 0kts

Navigation Log

Ident Type
Flight plan parsing failed, navigation log unavailable